createdAt,value
2022-08-12T00:02:02.169Z,4.30
2022-08-12T00:04:51.539Z,7.22
2022-08-12T00:07:37.297Z,8.80
2022-08-12T00:10:23.389Z,9.20
2022-08-12T00:13:09.278Z,8.20
2022-08-12T00:15:54.968Z,11.13
2022-08-12T00:18:41.128Z,10.00
2022-08-12T00:24:12.986Z,10.43
2022-08-12T00:26:59.550Z,9.75
2022-08-12T00:29:47.938Z,13.77
2022-08-12T00:32:35.922Z,14.65
2022-08-12T00:35:28.401Z,10.38
2022-08-12T00:38:23.182Z,18.17
2022-08-12T00:41:09.379Z,18.38
2022-08-12T00:46:23.030Z,16.20
2022-08-12T00:48:51.207Z,12.20
2022-08-12T00:51:19.917Z,17.60
2022-08-12T00:53:48.031Z,8.20
2022-08-12T00:56:15.697Z,9.05
2022-08-12T00:58:46.888Z,8.65
2022-08-12T01:01:14.752Z,7.90
2022-08-12T01:04:01.028Z,8.23
2022-08-12T01:06:51.182Z,10.32
2022-08-12T01:09:40.763Z,8.75
2022-08-12T01:12:10.357Z,17.38
2022-08-12T01:14:38.967Z,20.05
2022-08-12T01:17:06.328Z,24.10
2022-08-12T01:19:34.038Z,23.23
2022-08-12T01:22:14.028Z,22.08
2022-08-12T01:24:41.379Z,20.85
2022-08-12T01:27:11.433Z,49.47
2022-08-12T01:29:42.347Z,43.50
2022-08-12T01:32:11.449Z,65.43
2022-08-12T01:34:39.786Z,52.03
2022-08-12T01:37:08.613Z,60.13
2022-08-12T01:40:35.179Z,60.47
2022-08-12T01:42:34.745Z,80.32
2022-08-12T01:45:02.367Z,77.93
2022-08-12T01:47:41.361Z,61.33
2022-08-12T01:50:16.907Z,80.30
2022-08-12T01:52:59.428Z,95.70
2022-08-12T01:55:34.827Z,117.15
2022-08-12T01:58:02.047Z,77.20
2022-08-12T02:00:54.960Z,148.30
2022-08-12T02:03:23.317Z,76.95
2022-08-12T02:06:23.987Z,72.35
2022-08-12T02:09:14.077Z,178.63
2022-08-12T02:12:00.579Z,175.30
2022-08-12T02:14:54.857Z,247.48
2022-08-12T02:17:24.155Z,308.08
2022-08-12T02:20:16.458Z,252.80
2022-08-12T02:22:45.087Z,158.00
2022-08-12T02:25:22.897Z,227.88
2022-08-12T02:27:52.009Z,115.40
2022-08-12T02:30:20.532Z,169.57
2022-08-12T02:32:48.881Z,109.78
2022-08-12T02:35:19.799Z,171.07
2022-08-12T02:37:48.697Z,133.75
2022-08-12T02:40:17.866Z,114.50
2022-08-12T02:42:51.586Z,130.70
2022-08-12T02:45:21.798Z,106.00
2022-08-12T02:47:59.430Z,99.10
2022-08-12T02:50:31.657Z,69.93
2022-08-12T02:52:59.719Z,111.05
2022-08-12T02:55:34.638Z,47.10
2022-08-12T02:58:07.138Z,55.00
2022-08-12T03:00:40.070Z,72.90
2022-08-12T03:03:09.037Z,86.45
2022-08-12T03:05:44.038Z,60.95
2022-08-12T03:08:20.190Z,48.45
2022-08-12T03:11:07.851Z,114.07
2022-08-12T03:13:41.776Z,100.93
2022-08-12T03:16:09.067Z,108.93
2022-08-12T03:18:36.558Z,50.95
2022-08-12T03:21:04.176Z,66.18
2022-08-12T03:23:31.691Z,93.13
2022-08-12T03:26:01.956Z,96.30
2022-08-12T03:28:50.086Z,94.82
2022-08-12T03:31:19.797Z,76.80
2022-08-12T03:34:00.873Z,83.93
2022-08-12T03:36:35.677Z,105.30
2022-08-12T03:39:17.342Z,118.30
2022-08-12T03:42:06.427Z,135.52
2022-08-12T03:44:58.617Z,166.20
2022-08-12T03:47:52.456Z,179.85
2022-08-12T03:50:38.822Z,230.60
2022-08-12T03:53:28.247Z,228.18
2022-08-12T03:56:14.418Z,225.63
2022-08-12T03:58:59.927Z,217.07
2022-08-12T04:01:27.757Z,409.42
2022-08-12T04:03:55.416Z,397.40
2022-08-12T04:06:35.379Z,513.40
2022-08-12T04:09:14.696Z,468.40
2022-08-12T04:12:03.628Z,451.52
2022-08-12T04:14:32.297Z,361.20
2022-08-12T04:17:00.121Z,434.38
2022-08-12T04:19:27.507Z,286.15
2022-08-12T04:22:02.194Z,225.23
2022-08-12T04:24:32.097Z,202.15
2022-08-12T04:26:59.637Z,186.07
2022-08-12T04:30:30.565Z,201.90
2022-08-12T04:32:16.552Z,102.85
2022-08-12T04:34:44.687Z,107.88
2022-08-12T04:37:13.166Z,207.75
2022-08-12T04:39:40.937Z,206.90
2022-08-12T04:42:08.228Z,195.98
2022-08-12T04:44:35.597Z,163.80
2022-08-12T04:47:02.998Z,142.27
2022-08-12T04:49:30.617Z,156.90
2022-08-12T04:52:02.316Z,103.78
2022-08-12T04:54:30.196Z,95.13
2022-08-12T04:57:03.688Z,134.45
2022-08-12T04:59:48.433Z,126.20
2022-08-12T05:02:21.635Z,88.68
2022-08-12T05:05:00.597Z,89.88
2022-08-12T05:07:28.540Z,154.70
2022-08-12T05:10:01.928Z,123.72
2022-08-12T05:12:38.169Z,89.85
2022-08-12T05:17:43.557Z,78.93
2022-08-12T05:20:11.882Z,76.50
2022-08-12T05:22:39.463Z,68.97
2022-08-12T05:25:07.306Z,48.20
2022-08-12T05:27:34.977Z,38.40
2022-08-12T05:30:07.559Z,32.63
2022-08-12T05:32:37.195Z,20.80
2022-08-12T05:35:07.037Z,19.15
2022-08-12T05:37:35.100Z,19.45
2022-08-12T05:40:10.107Z,31.17
2022-08-12T05:42:38.116Z,16.50
2022-08-12T05:45:06.058Z,22.60
2022-08-12T05:47:53.271Z,27.33
2022-08-12T05:50:21.297Z,21.92
2022-08-12T05:52:48.659Z,18.92
2022-08-12T05:55:15.836Z,25.98
2022-08-12T05:57:49.176Z,27.55
2022-08-12T06:00:17.569Z,26.98
2022-08-12T06:02:46.710Z,29.15
2022-08-12T06:05:14.258Z,48.33
2022-08-12T06:08:01.386Z,22.15
2022-08-12T06:10:31.654Z,19.50
2022-08-12T06:13:01.237Z,27.80
2022-08-12T06:15:29.097Z,45.30
2022-08-12T06:18:13.827Z,29.88
2022-08-12T06:20:43.777Z,64.53
2022-08-12T06:23:12.090Z,35.35
2022-08-12T06:25:39.457Z,25.92
2022-08-12T06:28:14.966Z,26.67
2022-08-12T06:30:42.557Z,33.22
2022-08-12T06:33:54.932Z,28.08
2022-08-12T06:35:58.874Z,36.85
2022-08-12T06:38:27.007Z,40.80
2022-08-12T06:41:16.696Z,18.65
2022-08-12T06:44:05.505Z,26.25
2022-08-12T06:46:32.927Z,22.48
2022-08-12T06:49:01.056Z,21.45
2022-08-12T06:51:29.796Z,19.77
2022-08-12T06:53:57.397Z,15.98
2022-08-12T06:56:45.855Z,24.17
2022-08-12T06:59:14.449Z,22.83
2022-08-12T07:01:49.707Z,19.23
2022-08-12T07:07:10.918Z,21.38
2022-08-12T07:10:00.159Z,23.05
2022-08-12T07:12:27.884Z,24.35
2022-08-12T07:14:56.547Z,26.65
2022-08-12T07:17:23.815Z,26.33
2022-08-12T07:19:52.199Z,24.70
2022-08-12T07:22:19.737Z,12.85
2022-08-12T07:25:06.802Z,23.60
2022-08-12T07:27:41.155Z,12.68
2022-08-12T07:30:10.027Z,11.70
2022-08-12T07:32:37.518Z,24.63
2022-08-12T07:35:05.426Z,21.55
2022-08-12T07:37:35.240Z,11.60
2022-08-12T07:40:02.858Z,11.48
2022-08-12T07:42:30.157Z,8.45
2022-08-12T07:44:57.678Z,15.05
2022-08-12T07:47:27.438Z,6.28
2022-08-12T07:50:05.373Z,23.35
2022-08-12T07:52:34.974Z,3.65
2022-08-12T07:55:02.868Z,5.18
2022-08-12T07:57:32.755Z,4.63
2022-08-12T08:00:07.038Z,12.82
2022-08-12T08:02:37.715Z,6.78
2022-08-12T08:05:05.762Z,6.47
2022-08-12T08:07:33.039Z,5.10
2022-08-12T08:10:01.089Z,8.63
2022-08-12T08:12:47.584Z,5.95
2022-08-12T08:15:15.897Z,5.78
2022-08-12T08:18:14.967Z,3.35
2022-08-12T08:20:54.588Z,5.82
2022-08-12T08:23:22.319Z,4.47
2022-08-12T08:25:57.248Z,7.03
2022-08-12T08:28:24.757Z,5.95
2022-08-12T08:30:53.867Z,5.07
2022-08-12T08:34:01.220Z,4.60
2022-08-12T08:36:16.341Z,4.05
2022-08-12T08:38:57.762Z,3.42
2022-08-12T08:42:16.941Z,4.57
2022-08-12T08:47:01.596Z,4.47
2022-08-12T08:49:29.087Z,3.80
2022-08-12T08:51:56.307Z,4.30
2022-08-12T08:54:24.998Z,2.78
2022-08-12T08:56:52.558Z,2.85
2022-08-12T08:59:19.877Z,3.28
2022-08-12T09:01:47.861Z,2.50
2022-08-12T09:05:08.739Z,7.80
2022-08-12T09:07:16.619Z,7.22
2022-08-12T09:10:02.798Z,7.80
2022-08-12T09:15:39.137Z,6.10
2022-08-12T09:18:11.317Z,6.60
2022-08-12T09:20:39.958Z,6.95
2022-08-12T09:23:58.906Z,4.13
2022-08-12T09:26:04.468Z,5.97
2022-08-12T09:32:04.179Z,4.22
2022-08-12T09:34:28.172Z,2.47
2022-08-12T09:36:57.850Z,2.50
2022-08-12T09:40:02.465Z,3.00
2022-08-12T09:42:59.670Z,9.07
2022-08-12T09:46:19.707Z,9.43
2022-08-12T09:48:20.361Z,3.65
2022-08-12T09:50:51.643Z,2.88
2022-08-12T09:53:35.896Z,6.13
2022-08-12T09:57:02.256Z,2.97
2022-08-12T09:58:59.752Z,2.08
2022-08-12T10:01:34.988Z,1.92
2022-08-12T10:04:19.893Z,2.97
2022-08-12T10:06:55.496Z,6.85
2022-08-12T10:09:28.802Z,2.50
2022-08-12T10:12:33.335Z,2.65
2022-08-12T10:15:02.262Z,3.67
2022-08-12T10:17:29.917Z,4.85
2022-08-12T10:19:59.787Z,1.65
2022-08-12T10:22:39.931Z,2.60
2022-08-12T10:26:35.088Z,2.25
2022-08-12T10:28:33.519Z,2.55
2022-08-12T10:31:01.251Z,5.88
2022-08-12T10:33:32.168Z,3.90
2022-08-12T10:36:00.621Z,2.65
2022-08-12T10:38:38.690Z,6.80
2022-08-12T10:41:57.100Z,2.17
2022-08-12T10:44:16.914Z,4.38
2022-08-12T10:46:49.958Z,1.95
2022-08-12T10:50:05.000Z,1.85
2022-08-12T10:52:34.903Z,2.50
2022-08-12T10:54:55.967Z,2.28
2022-08-12T10:58:13.573Z,3.00
2022-08-12T11:00:33.993Z,2.60
2022-08-12T11:04:22.961Z,3.55
2022-08-12T11:07:07.902Z,4.93
2022-08-12T11:08:42.101Z,7.65
2022-08-12T11:11:16.709Z,3.50
2022-08-12T11:13:48.948Z,4.38
2022-08-12T11:16:23.162Z,2.20
2022-08-12T11:18:55.038Z,2.80
2022-08-12T11:21:51.243Z,10.68
2022-08-12T11:24:30.168Z,4.90
2022-08-12T11:26:59.221Z,2.28
2022-08-12T11:29:28.068Z,13.50
2022-08-12T11:32:15.258Z,11.05
2022-08-12T11:34:53.107Z,10.40
2022-08-12T11:37:25.744Z,7.00
2022-08-12T11:42:39.880Z,50.28
2022-08-12T11:45:16.379Z,3.40
2022-08-12T11:47:44.570Z,3.00
2022-08-12T11:50:19.454Z,2.33
2022-08-12T11:52:55.552Z,4.13
2022-08-12T11:55:25.244Z,3.78
2022-08-12T11:58:18.292Z,2.92
2022-08-12T12:03:43.769Z,2.42
2022-08-12T12:06:17.749Z,2.22
2022-08-12T12:08:51.024Z,3.08
2022-08-12T12:11:20.314Z,2.00
2022-08-12T12:14:08.461Z,3.03
2022-08-12T12:16:38.269Z,4.18
2022-08-12T12:19:10.109Z,1.88
2022-08-12T12:21:48.548Z,2.17
2022-08-12T12:24:21.949Z,2.63
2022-08-12T12:27:00.914Z,5.47
2022-08-12T12:30:17.895Z,2.35
2022-08-12T12:32:18.463Z,2.03
2022-08-12T12:35:13.756Z,5.28
2022-08-12T12:38:03.688Z,7.47
2022-08-12T12:40:22.839Z,5.75
2022-08-12T12:43:01.869Z,11.30
2022-08-12T12:45:33.964Z,1.88
2022-08-12T12:48:02.855Z,3.63
2022-08-12T12:50:35.883Z,8.40
2022-08-12T12:53:10.503Z,7.38
2022-08-12T12:55:57.694Z,3.85
2022-08-12T12:58:26.435Z,2.65
2022-08-12T13:01:01.249Z,3.70
2022-08-12T13:03:49.344Z,2.40
2022-08-12T13:08:46.977Z,3.30
2022-08-12T13:11:14.742Z,3.83
2022-08-12T13:14:08.677Z,4.57
2022-08-12T13:16:29.928Z,3.15
2022-08-12T13:18:58.458Z,15.45
2022-08-12T13:21:33.101Z,3.45
2022-08-12T13:24:09.690Z,5.13
2022-08-12T13:26:40.462Z,1.93
2022-08-12T13:29:10.322Z,4.07
2022-08-12T13:31:46.591Z,1.88
2022-08-12T13:34:32.169Z,4.03
2022-08-12T13:37:04.682Z,3.22
2022-08-12T13:39:38.823Z,1.90
2022-08-12T13:42:14.275Z,5.78
2022-08-12T13:44:42.863Z,5.00
2022-08-12T13:47:12.375Z,1.98
2022-08-12T13:49:54.091Z,2.70
2022-08-12T13:52:23.807Z,4.30
2022-08-12T13:54:56.279Z,2.53
2022-08-12T13:57:25.752Z,3.88
2022-08-12T14:00:00.711Z,2.55
2022-08-12T14:02:39.222Z,4.35
2022-08-12T14:05:37.807Z,3.33
2022-08-12T14:07:58.633Z,3.05
2022-08-12T14:10:50.489Z,1.55
2022-08-12T14:14:03.230Z,5.60
2022-08-12T14:16:08.204Z,1.73
2022-08-12T14:18:36.284Z,2.70
2022-08-12T14:21:06.336Z,4.60
2022-08-12T14:24:05.182Z,2.00
2022-08-12T14:26:25.587Z,3.53
2022-08-12T14:28:57.582Z,1.95
2022-08-12T14:31:31.363Z,2.28
2022-08-12T14:33:59.625Z,1.90
2022-08-12T14:36:27.025Z,2.97
2022-08-12T14:38:56.115Z,2.25
2022-08-12T14:41:37.288Z,2.67
2022-08-12T14:44:58.012Z,3.17
2022-08-12T14:47:00.894Z,5.57
2022-08-12T14:50:37.144Z,1.90
2022-08-12T14:53:13.340Z,2.67
2022-08-12T14:58:02.655Z,2.55
2022-08-12T15:00:52.430Z,2.63
2022-08-12T15:03:23.493Z,3.35
2022-08-12T15:06:04.902Z,6.60
2022-08-12T15:08:39.155Z,2.42
2022-08-12T15:11:09.964Z,3.58
2022-08-12T15:13:39.678Z,9.20
2022-08-12T15:16:07.425Z,2.42
2022-08-12T15:18:37.104Z,3.47
2022-08-12T15:21:11.475Z,3.30
2022-08-12T15:23:55.020Z,7.78
2022-08-12T15:26:28.549Z,7.53
2022-08-12T15:28:58.477Z,4.85
2022-08-12T15:31:28.379Z,2.85
2022-08-12T15:34:13.063Z,2.83
2022-08-12T15:36:53.694Z,4.10
2022-08-12T15:39:23.273Z,1.98
2022-08-12T15:41:55.240Z,3.92
2022-08-12T15:44:42.034Z,2.05
2022-08-12T15:47:10.492Z,2.00
2022-08-12T15:49:54.357Z,3.28
2022-08-12T15:52:27.933Z,1.88
2022-08-12T15:54:58.625Z,4.53
2022-08-12T15:57:33.435Z,2.42
2022-08-12T16:00:22.580Z,5.43
2022-08-12T16:03:02.103Z,6.15
2022-08-12T16:06:15.413Z,7.53
2022-08-12T16:08:27.473Z,2.92
2022-08-12T16:10:56.736Z,7.13
2022-08-12T16:13:32.771Z,2.80
2022-08-12T16:16:04.099Z,2.80
2022-08-12T16:18:49.825Z,2.85
2022-08-12T16:21:52.592Z,3.85
2022-08-12T16:24:07.631Z,3.63
2022-08-12T16:26:36.081Z,6.55
2022-08-12T16:29:14.536Z,4.03
2022-08-12T16:31:43.951Z,3.20
2022-08-12T16:34:25.685Z,3.40
2022-08-12T16:37:10.211Z,3.67
2022-08-12T16:40:04.611Z,6.90
2022-08-12T16:42:27.770Z,6.53
2022-08-12T16:45:00.001Z,3.75
2022-08-12T16:47:57.520Z,11.82
2022-08-12T16:50:31.030Z,3.03
2022-08-12T16:53:02.374Z,3.28
2022-08-12T16:55:42.538Z,4.80
2022-08-12T16:58:28.028Z,4.90
2022-08-12T17:00:58.953Z,5.53
2022-08-12T17:03:35.308Z,9.02
2022-08-12T17:06:06.634Z,3.50
2022-08-12T17:08:34.111Z,5.28
2022-08-12T17:11:01.264Z,5.28
2022-08-12T17:13:29.400Z,6.95
2022-08-12T17:16:05.785Z,7.85
2022-08-12T17:18:43.053Z,6.22
2022-08-12T17:21:41.277Z,6.47
2022-08-12T17:24:17.341Z,6.15
2022-08-12T17:26:49.103Z,7.35
2022-08-12T17:29:23.907Z,9.07
2022-08-12T17:32:03.038Z,5.10
2022-08-12T17:34:51.160Z,8.30
2022-08-12T17:40:06.370Z,8.95
2022-08-12T17:42:35.695Z,7.60
2022-08-12T17:45:17.834Z,13.65
2022-08-12T17:48:04.805Z,10.85
2022-08-12T17:50:34.685Z,12.43
2022-08-12T17:53:02.594Z,15.40
2022-08-12T17:55:44.003Z,13.15
2022-08-12T17:58:16.761Z,8.70
2022-08-12T18:00:45.691Z,9.52
2022-08-12T18:03:58.095Z,11.77
2022-08-12T18:06:14.151Z,18.77
2022-08-12T18:08:53.401Z,10.70
2022-08-12T18:12:03.600Z,13.10
2022-08-12T18:14:28.638Z,19.58
2022-08-12T18:16:57.838Z,17.05
2022-08-12T18:20:03.830Z,20.88
2022-08-12T18:22:21.720Z,18.85
2022-08-12T18:24:50.496Z,21.30
2022-08-12T18:27:41.005Z,18.80
2022-08-12T18:30:20.943Z,17.00
2022-08-12T18:33:03.197Z,15.60
2022-08-12T18:35:47.474Z,12.73
2022-08-12T18:38:20.730Z,11.25
2022-08-12T18:41:22.792Z,14.70
2022-08-12T18:44:01.260Z,14.07
2022-08-12T18:46:53.367Z,14.75
2022-08-12T18:49:39.436Z,17.23
2022-08-12T18:52:08.641Z,21.60
2022-08-12T18:54:53.901Z,23.05
2022-08-12T18:58:06.333Z,15.18
2022-08-12T19:00:22.322Z,15.80
2022-08-12T19:02:50.855Z,23.33
2022-08-12T19:05:18.447Z,21.77
2022-08-12T19:07:58.006Z,18.58
2022-08-12T19:10:32.334Z,27.02
2022-08-12T19:13:23.990Z,52.63
2022-08-12T19:15:54.004Z,35.70
2022-08-12T19:18:22.501Z,37.05
2022-08-12T19:20:50.908Z,22.35
2022-08-12T19:23:20.961Z,19.17
2022-08-12T19:25:59.395Z,17.73
2022-08-12T19:28:34.437Z,25.63
2022-08-12T19:31:56.593Z,21.42
2022-08-12T19:34:56.359Z,28.42
2022-08-12T19:37:14.670Z,28.80
2022-08-12T19:40:08.885Z,28.45
2022-08-12T19:42:32.750Z,26.88
2022-08-12T19:45:05.220Z,27.83
2022-08-12T19:47:38.728Z,26.33
2022-08-12T19:50:11.369Z,30.75
2022-08-12T19:52:40.973Z,21.55
2022-08-12T19:55:11.441Z,24.90
2022-08-12T19:58:03.258Z,26.05
2022-08-12T20:00:32.068Z,25.05
2022-08-12T20:03:04.615Z,24.90
2022-08-12T20:06:07.711Z,37.70
2022-08-12T20:08:34.727Z,27.17
2022-08-12T20:12:14.178Z,25.35
2022-08-12T20:14:01.484Z,22.00
2022-08-12T20:16:51.815Z,23.35
2022-08-12T20:19:20.799Z,29.50
2022-08-12T20:21:49.827Z,21.77
2022-08-12T20:24:17.096Z,26.80
2022-08-12T20:26:48.311Z,22.13
2022-08-12T20:29:16.797Z,23.48
2022-08-12T20:31:44.476Z,24.08
2022-08-12T20:34:12.212Z,22.48
2022-08-12T20:36:44.592Z,22.30
2022-08-12T20:39:34.104Z,22.95
2022-08-12T20:42:02.353Z,22.83
2022-08-12T20:44:34.506Z,22.88
2022-08-12T20:47:17.863Z,24.20
2022-08-12T20:49:55.454Z,29.80
2022-08-12T20:52:29.092Z,28.13
2022-08-12T20:54:58.096Z,32.92
2022-08-12T20:57:37.954Z,41.17
2022-08-12T21:00:09.180Z,42.47
2022-08-12T21:02:39.286Z,40.20
2022-08-12T21:06:12.862Z,39.92
2022-08-12T21:08:14.525Z,38.20
2022-08-12T21:10:42.297Z,34.25
2022-08-12T21:13:20.562Z,30.83
2022-08-12T21:15:55.061Z,40.55
2022-08-12T21:18:29.332Z,48.00
2022-08-12T21:20:59.278Z,45.30
2022-08-12T21:23:30.831Z,48.47
2022-08-12T21:26:16.316Z,48.95
2022-08-12T21:28:58.522Z,50.92
2022-08-12T21:32:40.229Z,31.38
2022-08-12T21:34:19.795Z,30.33
2022-08-12T21:36:49.527Z,28.80
2022-08-12T21:39:21.181Z,41.45
2022-08-12T21:41:52.135Z,32.25
2022-08-12T21:44:24.016Z,38.53
2022-08-12T21:47:21.092Z,38.60
2022-08-12T21:50:02.990Z,43.85
2022-08-12T21:52:40.964Z,32.67
2022-08-12T21:55:18.163Z,37.87
2022-08-12T21:57:54.123Z,39.30
2022-08-12T22:00:36.902Z,32.80
2022-08-12T22:04:01.832Z,35.23
2022-08-12T22:06:30.871Z,33.22
2022-08-12T22:09:15.234Z,41.08
2022-08-12T22:11:56.578Z,48.92
2022-08-12T22:14:28.441Z,46.80
2022-08-12T22:16:56.663Z,39.53
2022-08-12T22:19:24.460Z,44.13
2022-08-12T22:21:54.557Z,39.30
2022-08-12T22:24:30.373Z,41.63
2022-08-12T22:27:08.270Z,42.53
2022-08-12T22:30:07.918Z,40.42
2022-08-12T22:33:02.876Z,38.92
2022-08-12T22:35:56.239Z,37.20
2022-08-12T22:38:25.121Z,38.22
2022-08-12T22:41:01.077Z,38.60
2022-08-12T22:44:00.101Z,36.13
2022-08-12T22:46:52.488Z,37.20
2022-08-12T22:49:48.813Z,32.13
2022-08-12T22:52:14.063Z,45.15
2022-08-12T22:55:02.235Z,38.78
2022-08-12T22:57:53.185Z,39.88
2022-08-12T23:00:24.022Z,34.97
2022-08-12T23:02:51.947Z,32.75
2022-08-12T23:05:57.465Z,33.33
2022-08-12T23:08:17.773Z,31.80
2022-08-12T23:10:46.667Z,33.25
2022-08-12T23:13:43.268Z,25.58
2022-08-12T23:16:28.405Z,26.48
2022-08-12T23:19:01.775Z,28.95
2022-08-12T23:22:06.043Z,30.77
2022-08-12T23:24:38.906Z,31.50
2022-08-12T23:27:51.024Z,31.48
2022-08-12T23:30:19.168Z,29.50
2022-08-12T23:32:54.496Z,32.05
2022-08-12T23:35:28.460Z,28.83
2022-08-12T23:38:30.325Z,33.15
2022-08-12T23:40:59.937Z,28.10
2022-08-12T23:43:40.103Z,27.42
2022-08-12T23:46:19.121Z,27.75
2022-08-12T23:48:47.878Z,32.00
2022-08-12T23:51:23.522Z,28.67
2022-08-12T23:53:59.757Z,32.47
2022-08-12T23:56:28.513Z,27.15
2022-08-12T23:58:58.731Z,42.08
